sensor_id;sensor_type;location;lat;lon;timestamp;P1;durP1;ratioP1;P2;durP2;ratioP2
28724;SDS011;43472;48.980;9.646;2022-09-09T00:06:31;2.13;;;1.10;;
28724;SDS011;43472;48.980;9.646;2022-09-09T00:17:40;6.55;;;2.30;;
28724;SDS011;43472;48.980;9.646;2022-09-09T00:22:47;5.57;;;1.65;;
28724;SDS011;43472;48.980;9.646;2022-09-09T00:27:55;4.20;;;2.25;;
28724;SDS011;43472;48.980;9.646;2022-09-09T00:33:02;5.32;;;1.80;;
28724;SDS011;43472;48.980;9.646;2022-09-09T00:38:24;5.97;;;1.88;;
28724;SDS011;43472;48.980;9.646;2022-09-09T00:43:37;8.68;;;4.53;;
28724;SDS011;43472;48.980;9.646;2022-09-09T00:54:03;6.38;;;2.17;;
28724;SDS011;43472;48.980;9.646;2022-09-09T01:04:33;3.80;;;1.27;;
28724;SDS011;43472;48.980;9.646;2022-09-09T01:09:40;24.27;;;8.00;;
28724;SDS011;43472;48.980;9.646;2022-09-09T01:15:04;15.85;;;6.55;;
28724;SDS011;43472;48.980;9.646;2022-09-09T01:20:15;3.55;;;1.80;;
28724;SDS011;43472;48.980;9.646;2022-09-09T01:25:29;15.52;;;6.03;;
28724;SDS011;43472;48.980;9.646;2022-09-09T01:30:43;17.98;;;6.15;;
28724;SDS011;43472;48.980;9.646;2022-09-09T01:35:49;10.93;;;5.22;;
28724;SDS011;43472;48.980;9.646;2022-09-09T01:40:55;6.25;;;2.97;;
28724;SDS011;43472;48.980;9.646;2022-09-09T01:56:35;1.95;;;1.02;;
28724;SDS011;43472;48.980;9.646;2022-09-09T02:07:03;2.65;;;1.17;;
28724;SDS011;43472;48.980;9.646;2022-09-09T02:12:25;7.32;;;3.50;;
28724;SDS011;43472;48.980;9.646;2022-09-09T02:17:30;15.80;;;4.60;;
28724;SDS011;43472;48.980;9.646;2022-09-09T02:22:34;5.97;;;1.75;;
28724;SDS011;43472;48.980;9.646;2022-09-09T02:27:41;10.50;;;3.45;;
28724;SDS011;43472;48.980;9.646;2022-09-09T02:32:44;9.10;;;4.13;;
28724;SDS011;43472;48.980;9.646;2022-09-09T02:37:47;16.48;;;5.47;;
28724;SDS011;43472;48.980;9.646;2022-09-09T02:42:53;7.78;;;3.17;;
28724;SDS011;43472;48.980;9.646;2022-09-09T02:48:02;8.02;;;3.53;;
28724;SDS011;43472;48.980;9.646;2022-09-09T02:53:41;5.60;;;2.42;;
28724;SDS011;43472;48.980;9.646;2022-09-09T02:58:56;11.77;;;3.85;;
28724;SDS011;43472;48.980;9.646;2022-09-09T03:03:58;4.85;;;2.08;;
28724;SDS011;43472;48.980;9.646;2022-09-09T03:08:59;3.63;;;1.33;;
28724;SDS011;43472;48.980;9.646;2022-09-09T03:14:02;5.68;;;1.50;;
28724;SDS011;43472;48.980;9.646;2022-09-09T03:19:04;6.03;;;1.63;;
28724;SDS011;43472;48.980;9.646;2022-09-09T03:24:07;8.55;;;3.05;;
28724;SDS011;43472;48.980;9.646;2022-09-09T03:29:08;4.75;;;1.58;;
28724;SDS011;43472;48.980;9.646;2022-09-09T03:34:10;2.72;;;1.17;;
28724;SDS011;43472;48.980;9.646;2022-09-09T03:39:12;3.72;;;1.13;;
28724;SDS011;43472;48.980;9.646;2022-09-09T03:44:15;3.83;;;1.25;;
28724;SDS011;43472;48.980;9.646;2022-09-09T03:49:17;3.72;;;1.92;;
28724;SDS011;43472;48.980;9.646;2022-09-09T03:54:19;4.38;;;2.33;;
28724;SDS011;43472;48.980;9.646;2022-09-09T03:59:20;6.80;;;1.80;;
28724;SDS011;43472;48.980;9.646;2022-09-09T04:04:22;5.43;;;1.15;;
28724;SDS011;43472;48.980;9.646;2022-09-09T04:09:24;4.03;;;1.50;;
28724;SDS011;43472;48.980;9.646;2022-09-09T04:14:26;3.78;;;1.40;;
28724;SDS011;43472;48.980;9.646;2022-09-09T04:19:29;6.15;;;2.42;;
28724;SDS011;43472;48.980;9.646;2022-09-09T04:24:32;4.78;;;2.05;;
28724;SDS011;43472;48.980;9.646;2022-09-09T04:29:34;10.40;;;2.72;;
28724;SDS011;43472;48.980;9.646;2022-09-09T04:34:36;5.28;;;2.17;;
28724;SDS011;43472;48.980;9.646;2022-09-09T04:39:38;3.30;;;1.58;;
28724;SDS011;43472;48.980;9.646;2022-09-09T04:44:40;6.30;;;2.53;;
28724;SDS011;43472;48.980;9.646;2022-09-09T04:49:42;4.25;;;1.85;;
28724;SDS011;43472;48.980;9.646;2022-09-09T04:54:43;5.20;;;1.77;;
28724;SDS011;43472;48.980;9.646;2022-09-09T04:59:46;6.13;;;2.05;;
28724;SDS011;43472;48.980;9.646;2022-09-09T05:04:48;7.07;;;2.70;;
28724;SDS011;43472;48.980;9.646;2022-09-09T05:09:50;12.00;;;3.08;;
28724;SDS011;43472;48.980;9.646;2022-09-09T05:14:52;7.80;;;2.45;;
28724;SDS011;43472;48.980;9.646;2022-09-09T05:19:54;9.25;;;2.58;;
28724;SDS011;43472;48.980;9.646;2022-09-09T05:25:13;6.70;;;2.65;;
28724;SDS011;43472;48.980;9.646;2022-09-09T05:30:15;7.03;;;2.92;;
28724;SDS011;43472;48.980;9.646;2022-09-09T05:35:20;10.77;;;2.70;;
28724;SDS011;43472;48.980;9.646;2022-09-09T05:40:22;5.30;;;2.25;;
28724;SDS011;43472;48.980;9.646;2022-09-09T05:45:24;11.68;;;4.90;;
28724;SDS011;43472;48.980;9.646;2022-09-09T05:50:26;9.07;;;3.63;;
28724;SDS011;43472;48.980;9.646;2022-09-09T05:55:31;7.50;;;2.85;;
28724;SDS011;43472;48.980;9.646;2022-09-09T06:00:33;2.80;;;2.30;;
28724;SDS011;43472;48.980;9.646;2022-09-09T06:05:35;6.82;;;2.95;;
28724;SDS011;43472;48.980;9.646;2022-09-09T06:10:37;12.57;;;3.58;;
28724;SDS011;43472;48.980;9.646;2022-09-09T06:15:39;3.03;;;1.95;;
28724;SDS011;43472;48.980;9.646;2022-09-09T06:21:03;5.78;;;2.13;;
28724;SDS011;43472;48.980;9.646;2022-09-09T06:26:10;7.07;;;2.38;;
28724;SDS011;43472;48.980;9.646;2022-09-09T06:31:19;9.65;;;3.58;;
28724;SDS011;43472;48.980;9.646;2022-09-09T06:36:34;10.23;;;3.63;;
28724;SDS011;43472;48.980;9.646;2022-09-09T06:42:06;13.57;;;5.85;;
28724;SDS011;43472;48.980;9.646;2022-09-09T06:47:12;8.80;;;2.50;;
28724;SDS011;43472;48.980;9.646;2022-09-09T06:52:14;4.82;;;2.40;;
28724;SDS011;43472;48.980;9.646;2022-09-09T06:57:16;3.15;;;1.60;;
28724;SDS011;43472;48.980;9.646;2022-09-09T07:02:37;5.13;;;1.33;;
28724;SDS011;43472;48.980;9.646;2022-09-09T07:07:40;2.85;;;1.10;;
28724;SDS011;43472;48.980;9.646;2022-09-09T07:12:43;3.78;;;1.67;;
28724;SDS011;43472;48.980;9.646;2022-09-09T07:17:45;5.82;;;1.40;;
28724;SDS011;43472;48.980;9.646;2022-09-09T07:22:47;2.25;;;0.85;;
28724;SDS011;43472;48.980;9.646;2022-09-09T07:27:49;4.70;;;0.90;;
28724;SDS011;43472;48.980;9.646;2022-09-09T07:32:51;2.95;;;1.02;;
28724;SDS011;43472;48.980;9.646;2022-09-09T07:37:53;2.33;;;0.90;;
28724;SDS011;43472;48.980;9.646;2022-09-09T07:42:55;4.75;;;1.00;;
28724;SDS011;43472;48.980;9.646;2022-09-09T07:47:57;3.78;;;1.02;;
28724;SDS011;43472;48.980;9.646;2022-09-09T07:53:00;5.40;;;1.05;;
28724;SDS011;43472;48.980;9.646;2022-09-09T07:58:03;4.70;;;1.00;;
28724;SDS011;43472;48.980;9.646;2022-09-09T08:03:05;3.50;;;0.93;;
28724;SDS011;43472;48.980;9.646;2022-09-09T08:08:08;9.00;;;1.42;;
28724;SDS011;43472;48.980;9.646;2022-09-09T08:13:10;8.52;;;1.17;;
28724;SDS011;43472;48.980;9.646;2022-09-09T08:18:18;1.90;;;0.60;;
28724;SDS011;43472;48.980;9.646;2022-09-09T08:23:20;3.60;;;0.95;;
28724;SDS011;43472;48.980;9.646;2022-09-09T08:28:22;4.05;;;1.23;;
28724;SDS011;43472;48.980;9.646;2022-09-09T08:33:24;4.90;;;1.02;;
28724;SDS011;43472;48.980;9.646;2022-09-09T08:38:26;2.33;;;0.70;;
28724;SDS011;43472;48.980;9.646;2022-09-09T08:43:30;6.28;;;0.60;;
28724;SDS011;43472;48.980;9.646;2022-09-09T08:53:47;5.88;;;0.65;;
28724;SDS011;43472;48.980;9.646;2022-09-09T08:58:52;2.03;;;0.68;;
28724;SDS011;43472;48.980;9.646;2022-09-09T09:09:40;4.53;;;0.60;;
28724;SDS011;43472;48.980;9.646;2022-09-09T09:15:05;3.72;;;0.82;;
28724;SDS011;43472;48.980;9.646;2022-09-09T09:20:20;4.55;;;0.73;;
28724;SDS011;43472;48.980;9.646;2022-09-09T09:25:34;6.30;;;0.80;;
28724;SDS011;43472;48.980;9.646;2022-09-09T09:30:39;8.80;;;1.00;;
28724;SDS011;43472;48.980;9.646;2022-09-09T09:35:44;4.18;;;0.60;;
28724;SDS011;43472;48.980;9.646;2022-09-09T09:40:52;2.95;;;0.63;;
28724;SDS011;43472;48.980;9.646;2022-09-09T09:45:59;5.13;;;0.85;;
28724;SDS011;43472;48.980;9.646;2022-09-09T09:51:17;4.47;;;0.70;;
28724;SDS011;43472;48.980;9.646;2022-09-09T09:56:29;5.70;;;0.90;;
28724;SDS011;43472;48.980;9.646;2022-09-09T10:01:32;1.50;;;0.60;;
28724;SDS011;43472;48.980;9.646;2022-09-09T10:06:35;1.60;;;0.70;;
28724;SDS011;43472;48.980;9.646;2022-09-09T10:11:51;2.97;;;0.90;;
28724;SDS011;43472;48.980;9.646;2022-09-09T10:33:09;7.70;;;1.00;;
28724;SDS011;43472;48.980;9.646;2022-09-09T10:54:36;2.22;;;0.40;;
28724;SDS011;43472;48.980;9.646;2022-09-09T11:00:04;2.10;;;0.55;;
28724;SDS011;43472;48.980;9.646;2022-09-09T11:16:44;3.60;;;0.55;;
28724;SDS011;43472;48.980;9.646;2022-09-09T11:21:29;4.20;;;1.02;;
28724;SDS011;43472;48.980;9.646;2022-09-09T11:26:48;1.85;;;0.45;;
28724;SDS011;43472;48.980;9.646;2022-09-09T11:32:11;2.80;;;0.43;;
28724;SDS011;43472;48.980;9.646;2022-09-09T11:43:05;3.17;;;0.80;;
28724;SDS011;43472;48.980;9.646;2022-09-09T11:48:23;2.95;;;0.45;;
28724;SDS011;43472;48.980;9.646;2022-09-09T11:53:33;1.92;;;0.47;;
28724;SDS011;43472;48.980;9.646;2022-09-09T11:58:38;3.30;;;0.35;;
28724;SDS011;43472;48.980;9.646;2022-09-09T12:03:49;3.72;;;0.70;;
28724;SDS011;43472;48.980;9.646;2022-09-09T12:09:06;3.63;;;0.60;;
28724;SDS011;43472;48.980;9.646;2022-09-09T12:20:04;8.48;;;1.58;;
28724;SDS011;43472;48.980;9.646;2022-09-09T12:25:21;3.97;;;0.70;;
28724;SDS011;43472;48.980;9.646;2022-09-09T12:30:36;6.70;;;0.80;;
28724;SDS011;43472;48.980;9.646;2022-09-09T12:36:00;7.22;;;1.10;;
28724;SDS011;43472;48.980;9.646;2022-09-09T12:41:03;4.90;;;1.50;;
28724;SDS011;43472;48.980;9.646;2022-09-09T12:46:08;2.03;;;0.60;;
28724;SDS011;43472;48.980;9.646;2022-09-09T12:51:28;2.70;;;0.60;;
28724;SDS011;43472;48.980;9.646;2022-09-09T12:56:32;4.40;;;0.80;;
28724;SDS011;43472;48.980;9.646;2022-09-09T13:01:36;5.72;;;0.63;;
28724;SDS011;43472;48.980;9.646;2022-09-09T13:06:39;2.35;;;0.43;;
28724;SDS011;43472;48.980;9.646;2022-09-09T13:11:41;3.80;;;0.52;;
28724;SDS011;43472;48.980;9.646;2022-09-09T13:16:55;5.35;;;0.75;;
28724;SDS011;43472;48.980;9.646;2022-09-09T13:21:59;1.37;;;0.20;;
28724;SDS011;43472;48.980;9.646;2022-09-09T13:32:35;2.78;;;0.40;;
28724;SDS011;43472;48.980;9.646;2022-09-09T13:37:37;6.10;;;1.02;;
28724;SDS011;43472;48.980;9.646;2022-09-09T13:42:42;1.98;;;0.50;;
28724;SDS011;43472;48.980;9.646;2022-09-09T13:47:55;0.45;;;0.15;;
28724;SDS011;43472;48.980;9.646;2022-09-09T13:52:58;1.63;;;0.50;;
28724;SDS011;43472;48.980;9.646;2022-09-09T13:58:01;2.72;;;0.55;;
28724;SDS011;43472;48.980;9.646;2022-09-09T14:03:04;3.60;;;0.38;;
28724;SDS011;43472;48.980;9.646;2022-09-09T14:08:07;2.40;;;0.40;;
28724;SDS011;43472;48.980;9.646;2022-09-09T14:13:12;0.30;;;0.17;;
28724;SDS011;43472;48.980;9.646;2022-09-09T14:18:13;1.23;;;0.52;;
28724;SDS011;43472;48.980;9.646;2022-09-09T14:23:15;1.20;;;0.20;;
28724;SDS011;43472;48.980;9.646;2022-09-09T14:28:18;1.25;;;0.73;;
28724;SDS011;43472;48.980;9.646;2022-09-09T14:33:40;2.03;;;0.40;;
28724;SDS011;43472;48.980;9.646;2022-09-09T14:38:42;1.55;;;0.30;;
28724;SDS011;43472;48.980;9.646;2022-09-09T14:43:44;2.08;;;0.60;;
28724;SDS011;43472;48.980;9.646;2022-09-09T14:48:47;2.78;;;0.43;;
28724;SDS011;43472;48.980;9.646;2022-09-09T14:53:57;1.13;;;0.47;;
28724;SDS011;43472;48.980;9.646;2022-09-09T14:59:00;4.28;;;0.60;;
28724;SDS011;43472;48.980;9.646;2022-09-09T15:04:03;1.33;;;0.50;;
28724;SDS011;43472;48.980;9.646;2022-09-09T15:09:06;0.55;;;0.20;;
28724;SDS011;43472;48.980;9.646;2022-09-09T15:14:08;1.90;;;0.40;;
28724;SDS011;43472;48.980;9.646;2022-09-09T15:19:10;3.53;;;0.40;;
28724;SDS011;43472;48.980;9.646;2022-09-09T15:24:12;2.53;;;0.45;;
28724;SDS011;43472;48.980;9.646;2022-09-09T15:29:14;3.90;;;0.55;;
28724;SDS011;43472;48.980;9.646;2022-09-09T15:34:16;4.28;;;0.47;;
28724;SDS011;43472;48.980;9.646;2022-09-09T15:39:19;4.05;;;0.50;;
28724;SDS011;43472;48.980;9.646;2022-09-09T15:44:20;1.15;;;0.30;;
28724;SDS011;43472;48.980;9.646;2022-09-09T15:49:26;2.72;;;0.60;;
28724;SDS011;43472;48.980;9.646;2022-09-09T15:54:28;4.47;;;0.55;;
28724;SDS011;43472;48.980;9.646;2022-09-09T15:59:33;0.90;;;0.30;;
28724;SDS011;43472;48.980;9.646;2022-09-09T16:04:35;2.60;;;0.82;;
28724;SDS011;43472;48.980;9.646;2022-09-09T16:09:37;2.55;;;0.80;;
28724;SDS011;43472;48.980;9.646;2022-09-09T16:14:39;2.58;;;0.80;;
28724;SDS011;43472;48.980;9.646;2022-09-09T16:19:41;3.88;;;0.40;;
28724;SDS011;43472;48.980;9.646;2022-09-09T16:24:43;0.70;;;0.22;;
28724;SDS011;43472;48.980;9.646;2022-09-09T16:29:46;3.00;;;0.43;;
28724;SDS011;43472;48.980;9.646;2022-09-09T16:34:47;2.83;;;0.40;;
28724;SDS011;43472;48.980;9.646;2022-09-09T16:39:49;2.47;;;0.45;;
28724;SDS011;43472;48.980;9.646;2022-09-09T16:44:52;1.15;;;0.28;;
28724;SDS011;43472;48.980;9.646;2022-09-09T16:49:54;1.17;;;0.30;;
28724;SDS011;43472;48.980;9.646;2022-09-09T16:54:55;6.35;;;1.23;;
28724;SDS011;43472;48.980;9.646;2022-09-09T16:59:57;1.48;;;0.55;;
28724;SDS011;43472;48.980;9.646;2022-09-09T17:05:00;0.85;;;0.40;;
28724;SDS011;43472;48.980;9.646;2022-09-09T17:10:02;2.00;;;0.55;;
28724;SDS011;43472;48.980;9.646;2022-09-09T17:15:04;2.80;;;0.45;;
28724;SDS011;43472;48.980;9.646;2022-09-09T17:20:07;2.13;;;0.38;;
28724;SDS011;43472;48.980;9.646;2022-09-09T17:25:09;2.60;;;0.63;;
28724;SDS011;43472;48.980;9.646;2022-09-09T17:30:12;2.50;;;0.85;;
28724;SDS011;43472;48.980;9.646;2022-09-09T17:35:14;8.23;;;0.68;;
28724;SDS011;43472;48.980;9.646;2022-09-09T17:40:16;2.13;;;0.60;;
28724;SDS011;43472;48.980;9.646;2022-09-09T17:45:18;12.77;;;7.25;;
28724;SDS011;43472;48.980;9.646;2022-09-09T17:50:20;2.45;;;0.30;;
28724;SDS011;43472;48.980;9.646;2022-09-09T17:55:22;0.73;;;0.28;;
28724;SDS011;43472;48.980;9.646;2022-09-09T18:00:24;1.98;;;0.57;;
28724;SDS011;43472;48.980;9.646;2022-09-09T18:05:27;1.05;;;0.22;;
28724;SDS011;43472;48.980;9.646;2022-09-09T18:10:29;1.45;;;0.30;;
28724;SDS011;43472;48.980;9.646;2022-09-09T18:15:35;4.07;;;0.28;;
28724;SDS011;43472;48.980;9.646;2022-09-09T18:20:59;1.45;;;0.40;;
28724;SDS011;43472;48.980;9.646;2022-09-09T18:26:10;1.48;;;0.30;;
28724;SDS011;43472;48.980;9.646;2022-09-09T18:31:14;1.13;;;0.20;;
28724;SDS011;43472;48.980;9.646;2022-09-09T18:36:21;4.07;;;0.30;;
28724;SDS011;43472;48.980;9.646;2022-09-09T18:46:28;0.40;;;0.20;;
28724;SDS011;43472;48.980;9.646;2022-09-09T18:51:33;3.00;;;0.20;;
28724;SDS011;43472;48.980;9.646;2022-09-09T18:56:37;3.90;;;0.40;;
28724;SDS011;43472;48.980;9.646;2022-09-09T19:01:39;0.85;;;0.40;;
28724;SDS011;43472;48.980;9.646;2022-09-09T19:06:43;1.00;;;0.90;;
28724;SDS011;43472;48.980;9.646;2022-09-09T19:11:46;1.00;;;0.80;;
28724;SDS011;43472;48.980;9.646;2022-09-09T19:16:48;1.50;;;0.95;;
28724;SDS011;43472;48.980;9.646;2022-09-09T19:21:50;2.78;;;1.50;;
28724;SDS011;43472;48.980;9.646;2022-09-09T19:26:54;2.88;;;1.08;;
28724;SDS011;43472;48.980;9.646;2022-09-09T19:31:58;0.82;;;0.70;;
28724;SDS011;43472;48.980;9.646;2022-09-09T19:37:22;3.60;;;0.70;;
28724;SDS011;43472;48.980;9.646;2022-09-09T19:42:24;1.23;;;0.60;;
28724;SDS011;43472;48.980;9.646;2022-09-09T19:47:26;0.68;;;0.60;;
28724;SDS011;43472;48.980;9.646;2022-09-09T19:52:27;4.32;;;0.80;;
28724;SDS011;43472;48.980;9.646;2022-09-09T19:57:29;1.67;;;0.90;;
28724;SDS011;43472;48.980;9.646;2022-09-09T20:02:31;1.67;;;0.75;;
28724;SDS011;43472;48.980;9.646;2022-09-09T20:07:34;1.52;;;0.60;;
28724;SDS011;43472;48.980;9.646;2022-09-09T20:12:36;1.38;;;1.05;;
28724;SDS011;43472;48.980;9.646;2022-09-09T20:17:37;1.45;;;0.73;;
28724;SDS011;43472;48.980;9.646;2022-09-09T20:22:39;11.23;;;0.70;;
28724;SDS011;43472;48.980;9.646;2022-09-09T20:27:41;0.63;;;0.60;;
28724;SDS011;43472;48.980;9.646;2022-09-09T20:32:42;0.82;;;0.40;;
28724;SDS011;43472;48.980;9.646;2022-09-09T20:37:44;2.25;;;1.48;;
28724;SDS011;43472;48.980;9.646;2022-09-09T20:42:46;1.10;;;0.70;;
28724;SDS011;43472;48.980;9.646;2022-09-09T20:47:49;0.40;;;0.40;;
28724;SDS011;43472;48.980;9.646;2022-09-09T20:52:51;1.08;;;0.60;;
28724;SDS011;43472;48.980;9.646;2022-09-09T20:57:52;3.78;;;0.80;;
28724;SDS011;43472;48.980;9.646;2022-09-09T21:02:54;1.65;;;0.47;;
28724;SDS011;43472;48.980;9.646;2022-09-09T21:07:56;3.05;;;0.63;;
28724;SDS011;43472;48.980;9.646;2022-09-09T21:12:59;1.63;;;0.70;;
28724;SDS011;43472;48.980;9.646;2022-09-09T21:18:01;6.82;;;3.00;;
28724;SDS011;43472;48.980;9.646;2022-09-09T21:23:03;3.63;;;1.48;;
28724;SDS011;43472;48.980;9.646;2022-09-09T21:28:07;3.60;;;1.70;;
28724;SDS011;43472;48.980;9.646;2022-09-09T21:33:09;2.65;;;0.70;;
28724;SDS011;43472;48.980;9.646;2022-09-09T21:38:16;1.15;;;0.75;;
28724;SDS011;43472;48.980;9.646;2022-09-09T21:43:21;3.45;;;1.17;;
28724;SDS011;43472;48.980;9.646;2022-09-09T21:48:26;3.65;;;0.63;;
28724;SDS011;43472;48.980;9.646;2022-09-09T21:53:28;1.63;;;1.00;;
28724;SDS011;43472;48.980;9.646;2022-09-09T21:58:30;6.10;;;2.00;;
28724;SDS011;43472;48.980;9.646;2022-09-09T22:03:34;6.28;;;1.85;;
28724;SDS011;43472;48.980;9.646;2022-09-09T22:08:40;3.67;;;1.80;;
28724;SDS011;43472;48.980;9.646;2022-09-09T22:13:43;3.03;;;1.25;;
28724;SDS011;43472;48.980;9.646;2022-09-09T22:18:52;1.88;;;0.75;;
28724;SDS011;43472;48.980;9.646;2022-09-09T22:23:57;1.63;;;1.02;;
28724;SDS011;43472;48.980;9.646;2022-09-09T22:29:04;5.88;;;1.60;;
28724;SDS011;43472;48.980;9.646;2022-09-09T22:34:06;10.55;;;2.67;;
28724;SDS011;43472;48.980;9.646;2022-09-09T22:39:08;5.50;;;2.00;;
28724;SDS011;43472;48.980;9.646;2022-09-09T22:44:10;2.88;;;1.60;;
28724;SDS011;43472;48.980;9.646;2022-09-09T22:49:11;3.00;;;1.38;;
28724;SDS011;43472;48.980;9.646;2022-09-09T22:54:13;5.72;;;1.20;;
28724;SDS011;43472;48.980;9.646;2022-09-09T22:59:21;2.15;;;1.15;;
28724;SDS011;43472;48.980;9.646;2022-09-09T23:04:23;0.82;;;0.75;;
28724;SDS011;43472;48.980;9.646;2022-09-09T23:09:25;2.30;;;1.17;;
28724;SDS011;43472;48.980;9.646;2022-09-09T23:14:28;1.02;;;0.80;;
28724;SDS011;43472;48.980;9.646;2022-09-09T23:19:31;1.92;;;0.70;;
28724;SDS011;43472;48.980;9.646;2022-09-09T23:24:32;6.32;;;1.40;;
28724;SDS011;43472;48.980;9.646;2022-09-09T23:29:34;6.53;;;2.22;;
28724;SDS011;43472;48.980;9.646;2022-09-09T23:34:36;2.17;;;0.75;;
28724;SDS011;43472;48.980;9.646;2022-09-09T23:39:40;3.35;;;0.82;;
28724;SDS011;43472;48.980;9.646;2022-09-09T23:44:42;8.95;;;0.77;;
28724;SDS011;43472;48.980;9.646;2022-09-09T23:49:47;3.17;;;1.20;;
28724;SDS011;43472;48.980;9.646;2022-09-09T23:54:50;6.20;;;2.42;;
28724;SDS011;43472;48.980;9.646;2022-09-09T23:59:52;2.60;;;1.67;;
